createdAt,value
2023-07-27T01:21:14.840Z,100.00
2023-07-27T01:24:00.643Z,100.00
2023-07-27T01:27:02.727Z,100.00
2023-07-27T01:30:07.303Z,100.00
2023-07-27T01:32:39.823Z,100.00
2023-07-27T01:35:14.195Z,100.00
2023-07-27T01:37:46.132Z,100.00
2023-07-27T01:40:18.354Z,100.00
2023-07-27T01:42:50.328Z,100.00
2023-07-27T01:45:22.477Z,100.00
2023-07-27T01:47:55.681Z,100.00
2023-07-27T01:50:27.696Z,100.00
2023-07-27T01:52:59.557Z,100.00
2023-07-27T01:55:31.784Z,100.00
2023-07-27T01:58:04.076Z,100.00
2023-07-27T02:00:36.117Z,100.00
2023-07-27T02:03:08.259Z,100.00
2023-07-27T02:05:40.596Z,100.00
2023-07-27T02:08:13.559Z,100.00
2023-07-27T02:10:45.707Z,100.00
2023-07-27T02:13:20.063Z,100.00
2023-07-27T02:15:53.830Z,100.00
2023-07-27T02:18:26.016Z,100.00
2023-07-27T02:20:58.009Z,100.00
2023-07-27T02:23:29.998Z,100.00
2023-07-27T02:26:02.373Z,100.00
2023-07-27T02:28:34.740Z,100.00
2023-07-27T02:31:07.059Z,100.00
2023-07-27T02:33:39.127Z,100.00
2023-07-27T02:36:11.311Z,100.00
2023-07-27T02:38:43.681Z,100.00
2023-07-27T02:41:15.787Z,100.00
2023-07-27T02:43:47.970Z,100.00
2023-07-27T02:46:20.090Z,100.00
2023-07-27T02:48:54.933Z,100.00
2023-07-27T02:51:27.116Z,100.00
2023-07-27T02:54:01.875Z,100.00
2023-07-27T02:56:36.270Z,100.00
2023-07-27T02:59:08.328Z,100.00
2023-07-27T03:01:45.309Z,100.00
2023-07-27T03:04:21.947Z,100.00
2023-07-27T03:06:54.283Z,100.00
2023-07-27T03:09:27.145Z,100.00
2023-07-27T03:11:59.202Z,100.00
2023-07-27T03:14:31.143Z,100.00
2023-07-27T03:17:03.453Z,100.00
2023-07-27T03:19:35.545Z,100.00
2023-07-27T03:22:08.187Z,100.00
2023-07-27T03:24:40.219Z,100.00
2023-07-27T03:27:12.372Z,100.00
2023-07-27T03:29:44.698Z,100.00
2023-07-27T03:32:16.900Z,100.00
2023-07-27T03:34:48.754Z,100.00
2023-07-27T03:37:22.282Z,100.00
2023-07-27T03:39:54.214Z,100.00
2023-07-27T03:42:27.388Z,100.00
2023-07-27T03:44:59.515Z,100.00
2023-07-27T03:47:31.657Z,100.00
2023-07-27T03:50:03.929Z,100.00
2023-07-27T03:52:36.069Z,100.00
2023-07-27T03:55:11.015Z,100.00
2023-07-27T03:57:43.373Z,100.00
2023-07-27T04:00:17.096Z,100.00
2023-07-27T04:02:52.536Z,100.00
2023-07-27T04:05:24.698Z,100.00
2023-07-27T04:07:57.011Z,100.00
2023-07-27T04:10:31.186Z,100.00
2023-07-27T04:13:03.672Z,100.00
2023-07-27T04:15:36.093Z,100.00
2023-07-27T04:18:08.294Z,100.00
2023-07-27T04:20:40.436Z,100.00
2023-07-27T04:23:12.401Z,100.00
2023-07-27T04:25:44.991Z,100.00
2023-07-27T04:28:17.046Z,100.00
2023-07-27T04:30:49.172Z,100.00
2023-07-27T04:33:21.198Z,100.00
2023-07-27T04:35:53.286Z,100.00
2023-07-27T04:38:25.288Z,100.00
2023-07-27T04:40:57.494Z,100.00
2023-07-27T04:43:29.471Z,100.00
2023-07-27T04:46:01.625Z,100.00
2023-07-27T04:48:33.805Z,100.00
2023-07-27T04:51:06.244Z,100.00
2023-07-27T04:53:38.162Z,100.00
2023-07-27T04:56:10.271Z,100.00
2023-07-27T04:58:42.256Z,100.00
2023-07-27T05:01:14.492Z,100.00
2023-07-27T05:03:46.973Z,100.00
2023-07-27T05:06:19.052Z,100.00
2023-07-27T05:08:51.143Z,100.00
2023-07-27T05:11:23.255Z,100.00
2023-07-27T05:13:55.475Z,100.00
2023-07-27T05:16:27.520Z,100.00
2023-07-27T05:19:00.070Z,100.00
2023-07-27T05:21:32.208Z,100.00
2023-07-27T05:24:04.461Z,100.00
2023-07-27T05:26:36.834Z,100.00
2023-07-27T05:29:09.434Z,100.00
2023-07-27T05:31:41.863Z,100.00
2023-07-27T05:34:14.212Z,100.00
2023-07-27T05:36:46.312Z,100.00
2023-07-27T05:39:18.205Z,100.00
2023-07-27T05:41:50.246Z,100.00
2023-07-27T05:44:23.222Z,98.85
2023-07-27T05:46:58.072Z,98.31
2023-07-27T05:49:30.146Z,99.38
2023-07-27T05:52:02.332Z,99.91
2023-07-27T05:54:34.488Z,99.56
2023-07-27T05:57:07.370Z,98.74
2023-07-27T05:59:43.795Z,97.81
2023-07-27T06:02:21.148Z,97.36
2023-07-27T06:04:53.394Z,96.27
2023-07-27T06:07:27.467Z,95.03
2023-07-27T06:09:59.453Z,93.03
2023-07-27T06:12:31.961Z,89.25
2023-07-27T06:15:03.949Z,89.20
2023-07-27T06:17:36.039Z,86.75
2023-07-27T06:20:10.606Z,85.68
2023-07-27T06:22:43.111Z,85.07
2023-07-27T06:25:15.523Z,84.24
2023-07-27T06:27:47.461Z,82.29
2023-07-27T06:30:20.273Z,80.63
2023-07-27T06:32:52.350Z,78.13
2023-07-27T06:35:25.052Z,77.46
2023-07-27T06:37:57.162Z,79.88
2023-07-27T06:40:29.294Z,78.07
2023-07-27T06:43:01.571Z,76.78
2023-07-27T06:45:35.681Z,74.37
2023-07-27T06:48:08.521Z,73.47
2023-07-27T06:50:41.923Z,73.40
2023-07-27T06:53:14.156Z,72.56
2023-07-27T06:55:48.243Z,72.81
2023-07-27T06:58:20.351Z,72.44
2023-07-27T07:00:52.598Z,72.02
2023-07-27T07:03:24.618Z,68.97
2023-07-27T07:05:57.725Z,65.52
2023-07-27T07:08:30.725Z,63.33
2023-07-27T07:11:02.834Z,61.28
2023-07-27T07:13:34.827Z,60.12
2023-07-27T07:16:07.735Z,60.77
2023-07-27T07:18:40.052Z,60.06
2023-07-27T07:21:13.127Z,59.20
2023-07-27T07:23:45.252Z,59.37
2023-07-27T07:26:17.941Z,59.42
2023-07-27T07:28:49.854Z,59.01
2023-07-27T07:31:21.919Z,59.24
2023-07-27T07:33:54.093Z,60.56
2023-07-27T07:36:27.080Z,60.46
2023-07-27T07:38:59.220Z,61.10
2023-07-27T07:41:31.365Z,61.37
2023-07-27T07:44:03.358Z,60.07
